Time;durP1;ratioP1;P1;durP2;ratioP2;P2;SDS_P1;SDS_P2;PMS_P1;PMS_P2;Temp;Humidity;BMP_temperature;BMP_pressure;BME280_temperature;BME280_humidity;BME280_pressure;Samples;Min_cycle;Max_cycle;Signal;HPM_P1;HPM_P2
2022/12/09 00:02:08;;;;;;;27.63;17.20;;;5.00;70.00;;;;;;5009796;28;20057;-55
2022/12/09 00:04:35;;;;;;;23.70;16.25;;;5.00;70.00;;;;;;5006009;28;20069;-57
2022/12/09 00:07:02;;;;;;;23.27;16.10;;;5.00;70.10;;;;;;4991904;28;20108;-55
2022/12/09 00:09:29;;;;;;;24.98;16.67;;;5.00;70.20;;;;;;5008752;28;20046;-53
2022/12/09 00:11:58;;;;;;;25.23;16.58;;;4.90;70.20;;;;;;5007044;28;20495;-57
2022/12/09 00:14:25;;;;;;;26.25;16.83;;;4.90;70.30;;;;;;5006143;28;20040;-58
2022/12/09 00:17:03;;;;;;;27.45;16.85;;;5.00;70.40;;;;;;5006315;28;20132;-54
2022/12/09 00:19:33;;;;;;;23.45;16.15;;;5.00;70.50;;;;;;5010137;28;20518;-54
2022/12/09 00:22:00;;;;;;;22.73;15.38;;;5.00;70.50;;;;;;5010188;28;20136;-54
2022/12/09 00:24:27;;;;;;;23.15;17.35;;;5.00;70.60;;;;;;5023931;28;20046;-55
2022/12/09 00:26:54;;;;;;;29.48;17.67;;;5.00;70.70;;;;;;5008639;28;20061;-53
2022/12/09 00:29:20;;;;;;;26.35;18.13;;;5.00;70.70;;;;;;5013773;28;20046;-56
2022/12/09 00:31:47;;;;;;;26.67;17.55;;;5.00;70.60;;;;;;4995185;28;20100;-53
2022/12/09 00:34:16;;;;;;;25.45;18.50;;;5.10;70.70;;;;;;4989373;28;20507;-56
2022/12/09 00:36:42;;;;;;;26.35;17.90;;;5.10;70.60;;;;;;5012973;28;20038;-55
2022/12/09 00:39:11;;;;;;;21.15;17.05;;;5.10;70.60;;;;;;5005719;28;20120;-55
2022/12/09 00:41:40;;;;;;;20.63;15.93;;;5.10;70.60;;;;;;5013049;28;20088;-54
2022/12/09 00:44:08;;;;;;;26.77;16.42;;;5.10;70.60;;;;;;5008489;28;20070;-56
2022/12/09 00:46:37;;;;;;;28.58;16.73;;;5.10;70.50;;;;;;5012624;28;20514;-54
2022/12/09 00:49:05;;;;;;;27.73;17.25;;;5.10;70.60;;;;;;4996518;28;20041;-54
2022/12/09 00:51:32;;;;;;;25.20;16.73;;;5.20;70.60;;;;;;5011701;28;20050;-55
2022/12/09 00:54:01;;;;;;;27.77;17.63;;;5.20;70.60;;;;;;4995148;28;20050;-56
2022/12/09 00:56:32;;;;;;;25.15;17.42;;;5.20;70.60;;;;;;4994263;28;20566;-54
2022/12/09 00:58:59;;;;;;;23.55;16.67;;;5.20;70.60;;;;;;4996282;28;20494;-57
2022/12/09 01:01:27;;;;;;;25.33;17.20;;;5.20;70.60;;;;;;5009286;28;20038;-57
2022/12/09 01:03:57;;;;;;;25.60;18.05;;;5.30;70.60;;;;;;4995726;28;20137;-58
2022/12/09 01:06:25;;;;;;;23.45;17.13;;;5.30;70.50;;;;;;5012400;28;20046;-57
2022/12/09 01:08:52;;;;;;;25.67;16.67;;;5.30;70.50;;;;;;5013682;28;20069;-54
2022/12/09 01:11:23;;;;;;;27.20;17.50;;;5.30;70.40;;;;;;4986884;28;20438;-55
2022/12/09 01:13:53;;;;;;;27.13;17.45;;;5.30;70.40;;;;;;4991287;28;20051;-54
2022/12/09 01:16:27;;;;;;;24.35;16.90;;;5.30;70.40;;;;;;4995369;28;20100;-54
2022/12/09 01:18:58;;;;;;;28.48;17.63;;;5.30;70.40;;;;;;4994276;28;20604;-56
2022/12/09 01:21:30;;;;;;;24.25;15.77;;;5.30;70.40;;;;;;5008632;28;20041;-54
2022/12/09 01:23:59;;;;;;;32.67;17.63;;;5.30;70.40;;;;;;4995442;28;20421;-55
2022/12/09 01:26:26;;;;;;;25.30;17.88;;;5.30;70.40;;;;;;5011312;28;20062;-54
2022/12/09 01:28:54;;;;;;;28.55;18.90;;;5.40;70.50;;;;;;4995276;28;20060;-56
2022/12/09 01:31:24;;;;;;;30.02;18.10;;;5.40;70.60;;;;;;5005286;28;20104;-55
2022/12/09 01:33:54;;;;;;;32.13;18.02;;;5.40;70.60;;;;;;5013471;28;20034;-55
2022/12/09 01:36:25;;;;;;;30.00;17.50;;;5.40;70.60;;;;;;4994393;28;20116;-54
2022/12/09 01:38:53;;;;;;;25.17;16.20;;;5.40;70.50;;;;;;5007290;28;20103;-57
2022/12/09 01:41:21;;;;;;;28.58;17.95;;;5.40;70.40;;;;;;5010378;28;20034;-54
2022/12/09 01:44:13;;;;;;;24.05;17.17;;;5.40;70.40;;;;;;4995172;28;20766;-57
2022/12/09 01:46:46;;;;;;;26.13;16.88;;;5.40;70.40;;;;;;4994166;28;20476;-55
2022/12/09 01:49:19;;;;;;;23.02;15.95;;;5.40;70.40;;;;;;4984320;28;20042;-55
2022/12/09 01:51:55;;;;;;;29.80;16.73;;;5.50;70.60;;;;;;5008259;28;20048;-56
2022/12/09 01:54:24;;;;;;;24.35;16.50;;;5.50;70.70;;;;;;4994991;28;20042;-54
2022/12/09 01:56:52;;;;;;;24.45;15.95;;;5.50;70.70;;;;;;4993646;28;20049;-54
2022/12/09 01:59:26;;;;;;;22.60;16.45;;;5.50;70.80;;;;;;4991553;28;20064;-55
2022/12/09 02:01:59;;;;;;;26.85;16.88;;;5.60;70.80;;;;;;5010774;28;20038;-53
2022/12/09 02:04:31;;;;;;;27.25;16.13;;;5.60;70.80;;;;;;4995016;28;20042;-57
2022/12/09 02:07:00;;;;;;;;;;;5.60;70.70;;;;;;4988680;28;20415;-55
2022/12/09 02:09:29;;;;;;;24.67;14.93;;;5.70;70.80;;;;;;4990304;28;20032;-57
2022/12/09 02:12:21;;;;;;;23.90;15.05;;;5.70;70.40;;;;;;4993808;28;20049;-53
2022/12/09 02:14:57;;;;;;;21.05;15.02;;;5.70;70.20;;;;;;4994305;28;20100;-58
2022/12/09 02:17:31;;;;;;;25.17;15.02;;;5.70;70.30;;;;;;4982876;28;20047;-53
2022/12/09 02:20:08;;;;;;;22.73;15.25;;;5.70;70.40;;;;;;4993129;28;20073;-56
2022/12/09 02:22:45;;;;;;;26.75;16.85;;;5.70;70.40;;;;;;4994139;28;20069;-54
2022/12/09 02:25:46;;;;;;;24.17;16.10;;;5.80;70.50;;;;;;4992916;28;20039;-56
2022/12/09 02:28:47;;;;;;;23.27;15.10;;;5.80;70.50;;;;;;4976768;28;20522;-55
2022/12/09 02:31:18;;;;;;;22.63;16.02;;;5.80;70.60;;;;;;5002831;28;20076;-55
2022/12/09 02:34:11;;;;;;;24.20;15.77;;;5.90;70.60;;;;;;5012351;28;20514;-54
2022/12/09 02:37:08;;;;;;;20.90;14.80;;;5.90;70.50;;;;;;4992373;28;20054;-54
2022/12/09 02:39:52;;;;;;;26.83;15.98;;;5.90;70.40;;;;;;5011245;28;20080;-54
2022/12/09 02:42:24;;;;;;;21.65;15.35;;;5.90;70.40;;;;;;4987132;28;20421;-56
2022/12/09 02:44:52;;;;;;;23.63;16.98;;;5.90;70.40;;;;;;4992687;28;20670;-55
2022/12/09 02:47:28;;;;;;;24.50;15.73;;;6.00;70.40;;;;;;4993958;28;20483;-57
2022/12/09 02:50:04;;;;;;;24.80;16.05;;;6.00;70.40;;;;;;4993040;28;20069;-55
2022/12/09 02:52:36;;;;;;;21.73;15.63;;;6.00;70.40;;;;;;4993450;28;20081;-57
2022/12/09 02:55:07;;;;;;;24.60;15.50;;;6.10;70.40;;;;;;4988439;28;20038;-53
2022/12/09 02:57:36;;;;;;;;;;;6.10;70.40;;;;;;4993416;28;20092;-53
2022/12/09 03:00:04;;;;;;;20.92;14.27;;;6.10;71.00;;;;;;5011022;28;20028;-56
2022/12/09 03:02:43;;;;;;;21.77;14.63;;;6.10;70.20;;;;;;5009494;28;20125;-57
2022/12/09 03:05:32;;;;;;;22.58;15.40;;;6.10;70.20;;;;;;5004066;28;20341;-55
2022/12/09 03:08:22;;;;;;;22.05;15.20;;;6.20;70.20;;;;;;5009435;28;20045;-57
2022/12/09 03:11:05;;;;;;;22.80;15.38;;;6.10;70.10;;;;;;5010387;28;20042;-52
2022/12/09 03:13:57;;;;;;;25.92;15.27;;;6.20;70.10;;;;;;5009388;28;20042;-56
2022/12/09 03:16:52;;;;;;;20.83;16.02;;;6.20;70.20;;;;;;5005699;28;20467;-54
2022/12/09 03:19:32;;;;;;;20.38;15.68;;;6.20;70.10;;;;;;5004385;28;20120;-54
2022/12/09 03:22:12;;;;;;;22.30;15.88;;;6.20;70.10;;;;;;5007963;28;20136;-55
2022/12/09 03:24:51;;;;;;;26.55;17.10;;;6.20;70.00;;;;;;5007022;28;20113;-55
2022/12/09 03:27:29;;;;;;;23.48;16.10;;;6.20;70.00;;;;;;5003452;28;20495;-53
2022/12/09 03:29:58;;;;;;;24.02;15.82;;;6.20;69.90;;;;;;5010483;28;20549;-53
2022/12/09 03:32:29;;;;;;;23.45;16.58;;;6.20;69.90;;;;;;5007509;28;20057;-55
2022/12/09 03:35:07;;;;;;;20.27;14.65;;;6.20;69.90;;;;;;5009010;28;20042;-55
2022/12/09 03:37:36;;;;;;;21.52;15.68;;;6.20;69.90;;;;;;5009637;28;20494;-56
2022/12/09 03:40:08;;;;;;;24.63;15.77;;;6.20;69.90;;;;;;5010322;28;20042;-55
2022/12/09 03:42:49;;;;;;;25.15;16.35;;;6.20;69.90;;;;;;5007578;28;20041;-55
2022/12/09 03:45:18;;;;;;;24.92;15.57;;;6.20;69.80;;;;;;5009728;28;20038;-55
2022/12/09 03:47:45;;;;;;;26.67;16.70;;;6.30;69.90;;;;;;5010121;28;20042;-55
2022/12/09 03:50:15;;;;;;;21.05;14.95;;;6.30;69.90;;;;;;5007961;28;20050;-58
2022/12/09 03:52:49;;;;;;;;;;;6.20;69.80;;;;;;5006278;28;20053;-58
2022/12/09 03:55:30;;;;;;;18.80;13.90;;;6.30;69.80;;;;;;5010820;28;19952;-55
2022/12/09 03:58:02;;;;;;;30.98;15.10;;;6.30;69.60;;;;;;5008299;28;20064;-59
2022/12/09 04:00:37;;;;;;;22.60;16.75;;;6.30;69.60;;;;;;4988523;28;20046;-56
2022/12/09 04:03:06;;;;;;;23.02;16.52;;;6.20;69.70;;;;;;5030261;23;20057;-54
2022/12/09 04:05:39;;;;;;;22.63;14.65;;;6.30;69.80;;;;;;5005406;28;20078;-52
2022/12/09 04:08:06;;;;;;;24.55;16.30;;;6.30;69.80;;;;;;5009328;28;20041;-54
2022/12/09 04:10:34;;;;;;;21.38;15.85;;;6.20;69.80;;;;;;5009714;28;20042;-55
2022/12/09 04:13:02;;;;;;;23.48;16.05;;;6.30;69.90;;;;;;4992299;28;20491;-53
2022/12/09 04:15:29;;;;;;;23.98;16.88;;;6.30;69.90;;;;;;4978618;28;20118;-55
2022/12/09 04:17:58;;;;;;;24.30;16.05;;;6.30;70.00;;;;;;4997718;28;20137;-56
2022/12/09 04:20:27;;;;;;;25.20;16.52;;;6.30;69.90;;;;;;4991428;28;20041;-54
2022/12/09 04:22:58;;;;;;;26.63;17.85;;;6.30;69.90;;;;;;4999499;28;20046;-52
2022/12/09 04:25:28;;;;;;;24.52;16.67;;;6.30;69.90;;;;;;5009937;28;20045;-55
2022/12/09 04:28:00;;;;;;;25.58;17.17;;;6.30;69.90;;;;;;5010076;28;20073;-56
2022/12/09 04:30:27;;;;;;;24.05;15.93;;;6.30;70.00;;;;;;4995938;28;20077;-55
2022/12/09 04:32:54;;;;;;;25.35;17.42;;;6.30;69.90;;;;;;4998750;28;20045;-53
2022/12/09 04:35:22;;;;;;;23.45;16.48;;;6.30;69.90;;;;;;5009637;28;20088;-55
2022/12/09 04:37:49;;;;;;;22.92;16.63;;;6.30;69.90;;;;;;4999952;28;20050;-55
2022/12/09 04:40:22;;;;;;;22.55;15.63;;;6.30;69.80;;;;;;4999562;28;20038;-54
2022/12/09 04:42:50;;;;;;;23.50;16.33;;;6.30;69.80;;;;;;5001341;28;20041;-55
2022/12/09 04:45:17;;;;;;;21.98;17.05;;;6.30;69.90;;;;;;5009564;28;20049;-55
2022/12/09 04:47:44;;;;;;;22.75;16.17;;;6.30;69.90;;;;;;4995082;28;20065;-54
2022/12/09 04:50:11;;;;;;;26.25;16.55;;;6.30;69.90;;;;;;4990242;28;20043;-56
2022/12/09 04:52:42;;;;;;;23.67;17.08;;;6.30;69.90;;;;;;5005018;28;20053;-55
2022/12/09 04:55:09;;;;;;;24.23;17.38;;;6.30;69.90;;;;;;4988467;28;20542;-56
2022/12/09 04:57:35;;;;;;;22.38;16.98;;;6.30;69.90;;;;;;4981478;28;20061;-55
2022/12/09 05:00:04;;;;;;;21.17;15.20;;;6.30;69.90;;;;;;4999204;28;20053;-56
2022/12/09 05:02:38;;;;;;;24.77;16.70;;;6.40;69.90;;;;;;5004873;28;20731;-52
2022/12/09 05:05:05;;;;;;;23.48;16.13;;;6.30;69.90;;;;;;4996326;28;20050;-55
2022/12/09 05:07:34;;;;;;;23.75;16.52;;;6.30;69.90;;;;;;4998034;28;20145;-55
2022/12/09 05:10:04;;;;;;;29.10;20.17;;;6.30;69.90;;;;;;4997209;28;20696;-55
2022/12/09 05:12:35;;;;;;;29.85;20.27;;;6.30;69.80;;;;;;4984916;28;20551;-55
2022/12/09 05:15:05;;;;;;;35.13;22.58;;;6.40;69.80;;;;;;5004927;28;20039;-53
2022/12/09 05:17:33;;;;;;;27.25;19.80;;;6.30;69.80;;;;;;4989548;28;20050;-53
2022/12/09 05:20:04;;;;;;;27.70;19.77;;;6.40;69.80;;;;;;4986155;28;20050;-52
2022/12/09 05:22:34;;;;;;;28.65;18.75;;;6.30;69.80;;;;;;5005200;28;20498;-55
2022/12/09 05:25:02;;;;;;;25.48;19.08;;;6.40;69.80;;;;;;5004441;28;20133;-53
2022/12/09 05:27:29;;;;;;;23.30;17.30;;;6.30;69.70;;;;;;5005177;28;20104;-56
2022/12/09 05:29:58;;;;;;;28.50;19.15;;;6.40;69.80;;;;;;5010361;28;20096;-56
2022/12/09 05:32:29;;;;;;;27.58;17.80;;;6.40;69.70;;;;;;4990658;28;20428;-55
2022/12/09 05:34:56;;;;;;;23.38;17.50;;;6.40;69.80;;;;;;4977652;28;20042;-54
2022/12/09 05:37:23;;;;;;;25.63;16.10;;;6.40;69.80;;;;;;5004530;28;20491;-56
2022/12/09 05:39:49;;;;;;;25.95;16.77;;;6.40;69.70;;;;;;5010084;28;20042;-55
2022/12/09 05:42:16;;;;;;;23.45;16.42;;;6.40;69.80;;;;;;5012171;28;20045;-56
2022/12/09 05:44:43;;;;;;;27.10;17.52;;;6.40;69.80;;;;;;4994612;28;20046;-56
2022/12/09 05:47:12;;;;;;;24.73;17.20;;;6.40;69.80;;;;;;4998772;28;20518;-54
2022/12/09 05:49:39;;;;;;;21.30;16.20;;;6.40;69.80;;;;;;5008330;28;20053;-54
2022/12/09 05:52:06;;;;;;;20.90;15.55;;;6.40;69.80;;;;;;5004614;28;20046;-56
2022/12/09 05:54:35;;;;;;;22.50;16.58;;;6.40;69.80;;;;;;4995933;28;20091;-56
2022/12/09 05:57:03;;;;;;;25.33;17.83;;;6.40;69.80;;;;;;5002589;28;20066;-53
2022/12/09 05:59:30;;;;;;;22.15;16.73;;;6.40;69.80;;;;;;5012454;28;20046;-52
2022/12/09 06:01:57;;;;;;;26.40;16.52;;;6.40;69.70;;;;;;5000774;28;20121;-52
2022/12/09 06:04:24;;;;;;;22.63;16.20;;;6.40;69.70;;;;;;5001451;28;20053;-55
2022/12/09 06:06:51;;;;;;;26.02;17.27;;;6.40;69.70;;;;;;5003570;28;20046;-57
2022/12/09 06:09:18;;;;;;;24.42;17.00;;;6.40;69.70;;;;;;5012341;28;20108;-55
2022/12/09 06:11:45;;;;;;;24.30;16.70;;;6.40;69.70;;;;;;4982045;28;20502;-55
2022/12/09 06:14:12;;;;;;;23.20;16.63;;;6.40;69.70;;;;;;4989316;28;20120;-55
2022/12/09 06:16:39;;;;;;;24.73;17.27;;;6.40;69.80;;;;;;4994958;28;20759;-55
2022/12/09 06:19:08;;;;;;;23.20;16.45;;;6.40;69.70;;;;;;4992906;28;20068;-55
2022/12/09 06:21:39;;;;;;;21.33;15.90;;;6.40;69.70;;;;;;4971230;28;20061;-52
2022/12/09 06:24:06;;;;;;;27.70;17.40;;;6.40;69.60;;;;;;4996994;28;20507;-56
2022/12/09 06:26:35;;;;;;;21.42;16.33;;;6.40;69.60;;;;;;4992980;28;20118;-57
2022/12/09 06:29:02;;;;;;;24.95;16.42;;;6.40;70.30;;;;;;5001474;28;20122;-55
2022/12/09 06:31:29;;;;;;;24.27;16.70;;;6.40;69.60;;;;;;4985984;28;20464;-53
2022/12/09 06:33:56;;;;;;;28.73;16.65;;;6.40;69.70;;;;;;4984262;28;20561;-56
2022/12/09 06:36:27;;;;;;;23.45;16.75;;;6.50;69.80;;;;;;4997876;28;20062;-56
2022/12/09 06:38:56;;;;;;;26.80;16.42;;;6.50;69.80;;;;;;5003846;28;20072;-54
2022/12/09 06:41:24;;;;;;;26.80;17.42;;;6.50;69.60;;;;;;5004591;28;20054;-56
2022/12/09 06:43:52;;;;;;;26.95;16.08;;;6.40;69.60;;;;;;4988842;28;20054;-56
2022/12/09 06:46:24;;;;;;;21.88;15.90;;;6.40;69.60;;;;;;4998395;28;20049;-54
2022/12/09 06:48:53;;;;;;;24.95;16.70;;;6.40;69.60;;;;;;4996756;28;20527;-56
2022/12/09 06:51:22;;;;;;;24.17;15.68;;;6.40;69.50;;;;;;4988576;28;20092;-56
2022/12/09 06:53:49;;;;;;;22.35;15.90;;;6.50;69.50;;;;;;4998139;28;20839;-54
2022/12/09 06:56:16;;;;;;;23.55;16.17;;;6.40;69.50;;;;;;4989696;28;20049;-52
2022/12/09 06:58:45;;;;;;;22.90;17.23;;;6.50;69.50;;;;;;4991314;28;20175;-52
2022/12/09 07:01:21;;;;;;;23.98;16.20;;;6.50;69.50;;;;;;4979596;28;20509;-54
2022/12/09 07:03:50;;;;;;;23.48;16.80;;;6.40;69.40;;;;;;4993948;28;20050;-52
2022/12/09 07:06:28;;;;;;;24.85;16.83;;;6.50;69.50;;;;;;4988813;28;20056;-54
2022/12/09 07:08:59;;;;;;;23.08;15.43;;;6.40;69.50;;;;;;4987944;28;20050;-54
2022/12/09 07:11:27;;;;;;;24.38;16.75;;;6.40;69.50;;;;;;4999149;28;20578;-53
2022/12/09 07:13:54;;;;;;;23.35;16.73;;;6.40;69.60;;;;;;5007675;28;20042;-56
2022/12/09 07:16:21;;;;;;;23.98;16.67;;;6.40;69.60;;;;;;4996644;28;20520;-55
2022/12/09 07:18:49;;;;;;;32.85;17.60;;;6.40;69.60;;;;;;4990497;28;20084;-56
2022/12/09 07:21:19;;;;;;;29.17;17.70;;;6.40;69.50;;;;;;4998369;28;20050;-56
2022/12/09 07:23:47;;;;;;;26.92;18.38;;;6.40;69.60;;;;;;4984530;28;20097;-56
2022/12/09 07:26:15;;;;;;;28.20;18.98;;;6.40;69.60;;;;;;4992524;28;20575;-56
2022/12/09 07:28:45;;;;;;;26.85;19.00;;;6.40;69.60;;;;;;4987172;28;20173;-56
2022/12/09 07:31:31;;;;;;;28.00;18.58;;;6.40;69.70;;;;;;4991348;28;20050;-56
2022/12/09 07:33:59;;;;;;;26.95;19.30;;;6.40;69.60;;;;;;4989979;28;20460;-52
2022/12/09 07:36:30;;;;;;;28.70;18.67;;;6.40;69.60;;;;;;4997101;28;20054;-53
2022/12/09 07:39:06;;;;;;;26.70;17.17;;;6.40;69.70;;;;;;5002181;28;20041;-55
2022/12/09 07:41:33;;;;;;;25.40;16.77;;;6.40;69.50;;;;;;4995334;28;20473;-56
2022/12/09 07:44:00;;;;;;;30.38;18.35;;;6.40;69.50;;;;;;4998096;28;20125;-56
2022/12/09 07:46:28;;;;;;;27.63;17.48;;;6.40;69.50;;;;;;4998627;28;20038;-56
2022/12/09 07:48:56;;;;;;;26.15;18.17;;;6.40;69.60;;;;;;5006462;28;20053;-54
2022/12/09 07:51:24;;;;;;;26.75;16.90;;;6.40;69.70;;;;;;4974235;28;20039;-55
2022/12/09 07:53:51;;;;;;;31.67;19.02;;;6.40;69.70;;;;;;4988396;28;20434;-53
2022/12/09 07:56:20;;;;;;;27.05;18.05;;;6.40;69.60;;;;;;4996236;28;20038;-54
2022/12/09 07:58:49;;;;;;;30.20;17.80;;;6.40;69.60;;;;;;5001208;28;20069;-55
2022/12/09 08:01:19;;;;;;;30.83;19.25;;;6.40;69.60;;;;;;5004008;28;20049;-52
2022/12/09 08:03:47;;;;;;;30.45;18.60;;;6.40;69.70;;;;;;4994765;28;20042;-54
2022/12/09 08:06:16;;;;;;;35.72;20.75;;;6.40;69.70;;;;;;4993864;28;20042;-52
2022/12/09 08:08:44;;;;;;;27.45;17.77;;;6.50;69.80;;;;;;4990632;28;20442;-54
2022/12/09 08:11:15;;;;;;;30.40;19.98;;;6.50;69.70;;;;;;4953823;28;20499;-54
2022/12/09 08:13:42;;;;;;;34.53;20.25;;;6.50;69.70;;;;;;4990719;28;20093;-54
2022/12/09 08:16:11;;;;;;;34.85;20.05;;;6.50;69.60;;;;;;4997817;28;20041;-55
2022/12/09 08:18:40;;;;;;;34.60;20.08;;;6.50;69.60;;;;;;4984618;28;20050;-51
2022/12/09 08:21:10;;;;;;;35.30;21.33;;;6.60;70.30;;;;;;4992468;28;20104;-56
2022/12/09 08:23:37;;;;;;;31.55;20.30;;;6.60;69.60;;;;;;4991753;28;20093;-56
2022/12/09 08:26:06;;;;;;;31.10;21.38;;;6.60;69.60;;;;;;5002240;28;20065;-57
2022/12/09 08:28:33;;;;;;;33.83;20.20;;;6.60;69.60;;;;;;4981868;28;20051;-52
2022/12/09 08:31:15;;;;;;;33.75;21.00;;;6.60;69.60;;;;;;4971850;28;20507;-55
2022/12/09 08:33:43;;;;;;;30.38;19.40;;;6.70;69.50;;;;;;4993328;28;20105;-54
2022/12/09 08:36:13;;;;;;;27.98;18.70;;;6.70;69.50;;;;;;5002543;28;20030;-57
2022/12/09 08:38:41;;;;;;;30.27;20.00;;;6.70;69.40;;;;;;5009952;28;20096;-57
2022/12/09 08:41:11;;;;;;;30.25;19.15;;;6.70;69.30;;;;;;5002275;28;20038;-54
2022/12/09 08:43:39;;;;;;;31.25;20.05;;;6.80;69.30;;;;;;4970946;28;20097;-55
2022/12/09 08:46:06;;;;;;;30.00;19.42;;;6.80;69.30;;;;;;4998930;28;20498;-55
2022/12/09 08:48:37;;;;;;;29.38;18.48;;;6.80;69.10;;;;;;4992037;28;20043;-54
2022/12/09 08:51:06;;;;;;;29.00;19.45;;;6.80;69.00;;;;;;4993698;28;20038;-52
2022/12/09 08:53:33;;;;;;;32.15;18.83;;;6.80;69.00;;;;;;5001096;28;20061;-57
2022/12/09 08:56:08;;;;;;;28.05;19.42;;;6.80;69.00;;;;;;5002391;28;20093;-52
2022/12/09 08:58:36;;;;;;;28.13;18.27;;;6.80;68.90;;;;;;4993692;28;20129;-53
2022/12/09 09:01:03;;;;;;;32.00;19.23;;;6.90;69.00;;;;;;4994261;28;20043;-55
2022/12/09 09:03:33;;;;;;;28.13;18.98;;;6.90;69.00;;;;;;5010786;28;20136;-54
2022/12/09 09:06:05;;;;;;;29.58;18.13;;;6.90;69.00;;;;;;4996283;28;20062;-53
2022/12/09 09:08:37;;;;;;;27.42;18.80;;;6.90;68.90;;;;;;4990694;28;20046;-55
2022/12/09 09:11:24;;;;;;;31.38;18.27;;;6.90;68.90;;;;;;5005007;28;20146;-52
2022/12/09 09:13:51;;;;;;;29.75;18.23;;;7.00;68.60;;;;;;5010459;28;20065;-54
2022/12/09 09:16:24;;;;;;;38.33;20.67;;;7.00;68.80;;;;;;4999793;28;20039;-57
2022/12/09 09:18:51;;;;;;;27.02;17.60;;;7.00;68.70;;;;;;4990489;28;20054;-54
2022/12/09 09:21:21;;;;;;;31.23;19.60;;;7.00;68.80;;;;;;5005292;28;20042;-54
2022/12/09 09:23:49;;;;;;;34.50;19.30;;;7.00;68.80;;;;;;5004767;28;20038;-53
2022/12/09 09:26:20;;;;;;;32.67;21.10;;;7.00;68.80;;;;;;5014294;28;20034;-55
2022/12/09 09:28:47;;;;;;;31.55;20.60;;;7.10;68.80;;;;;;5003529;28;20121;-56
2022/12/09 09:31:18;;;;;;;32.53;21.17;;;7.10;69.50;;;;;;4998275;28;20094;-54
2022/12/09 09:33:45;;;;;;;31.35;18.70;;;7.10;68.80;;;;;;4990820;28;20030;-55
2022/12/09 09:36:19;;;;;;;30.75;19.98;;;7.10;68.80;;;;;;4991995;28;20490;-58
2022/12/09 09:38:52;;;;;;;33.78;20.17;;;7.10;68.70;;;;;;4986977;28;20050;-53
2022/12/09 09:41:32;;;;;;;30.73;20.23;;;7.20;68.80;;;;;;4988027;28;20073;-56
2022/12/09 09:44:00;;;;;;;31.05;19.63;;;7.20;68.60;;;;;;4991980;28;20038;-56
2022/12/09 09:46:38;;;;;;;33.75;19.42;;;7.20;68.70;;;;;;4987273;28;20026;-55
2022/12/09 09:49:51;;;;;;;27.38;19.08;;;7.20;68.70;;;;;;4984742;28;20097;-53
2022/12/09 09:52:22;;;;;;;26.58;17.73;;;7.30;68.60;;;;;;4989019;28;20042;-55
2022/12/09 09:54:49;;;;;;;26.73;18.45;;;7.30;68.70;;;;;;4994688;28;20049;-56
2022/12/09 09:57:26;;;;;;;30.92;19.42;;;7.30;68.70;;;;;;4994659;28;20108;-56
2022/12/09 10:00:30;;;;;;;30.88;19.20;;;7.30;68.60;;;;;;5001085;28;20048;-52
2022/12/09 10:03:02;;;;;;;29.23;18.67;;;7.40;68.60;;;;;;5007423;28;20042;-54
2022/12/09 10:05:51;;;;;;;26.83;18.42;;;7.40;68.70;;;;;;4992775;28;20050;-52
2022/12/09 10:08:54;;;;;;;26.52;16.98;;;7.40;68.40;;;;;;5000328;28;20050;-55
2022/12/09 10:11:53;;;;;;;25.60;16.35;;;7.40;68.20;;;;;;4987622;28;20046;-56
2022/12/09 10:14:38;;;;;;;26.58;16.48;;;7.50;67.90;;;;;;4996593;28;20085;-54
2022/12/09 10:17:20;;;;;;;25.13;16.00;;;7.50;67.60;;;;;;5001021;28;20584;-54
2022/12/09 10:19:55;;;;;;;22.40;15.43;;;7.50;67.60;;;;;;5003143;28;20038;-54
2022/12/09 10:22:27;;;;;;;22.42;13.68;;;7.50;67.60;;;;;;4990144;28;20293;-53
2022/12/09 10:24:57;;;;;;;18.02;12.73;;;7.50;67.40;;;;;;4996002;28;20422;-55
2022/12/09 10:27:54;;;;;;;18.75;11.80;;;7.60;67.30;;;;;;4995910;28;20050;-56
2022/12/09 10:30:21;;;;;;;16.33;10.55;;;7.60;66.40;;;;;;4996939;28;20050;-54
2022/12/09 10:32:48;;;;;;;16.70;11.23;;;7.60;66.80;;;;;;5006984;28;20133;-52
2022/12/09 10:35:16;;;;;;;16.55;12.00;;;7.70;66.70;;;;;;4998429;28;20421;-56
2022/12/09 10:37:44;;;;;;;20.13;13.15;;;7.70;66.50;;;;;;4981758;28;20056;-55
2022/12/09 10:40:10;;;;;;;20.85;11.95;;;7.70;66.40;;;;;;4992669;28;20046;-56
2022/12/09 10:45:48;;;;;;;12.77;9.13;;;7.80;65.10;;;;;;4999430;28;20053;-55
2022/12/09 10:48:47;;;;;;;16.10;9.98;;;7.90;64.90;;;;;;4981622;28;20802;-53
2022/12/09 10:51:24;;;;;;;13.75;8.70;;;7.90;64.50;;;;;;4981440;28;20049;-51
2022/12/09 10:53:58;;;;;;;13.90;9.10;;;7.90;64.80;;;;;;4987582;28;20050;-54
2022/12/09 10:56:34;;;;;;;14.65;9.65;;;7.90;64.80;;;;;;4989524;28;20045;-56
2022/12/09 10:59:12;;;;;;;14.43;9.82;;;7.90;64.70;;;;;;5064713;23;20132;-57
2022/12/09 11:01:50;;;;;;;14.70;9.18;;;7.90;64.60;;;;;;4987176;28;20051;-57
2022/12/09 11:04:34;;;;;;;14.13;9.02;;;7.90;64.20;;;;;;4973621;28;20039;-58
2022/12/09 11:07:13;;;;;;;13.98;9.13;;;8.00;63.80;;;;;;4972794;28;20053;-57
2022/12/09 11:09:41;;;;;;;12.80;8.30;;;8.00;64.70;;;;;;4989834;28;20051;-58
2022/12/09 11:12:26;;;;;;;11.63;7.57;;;8.00;64.60;;;;;;4988329;28;20101;-57
2022/12/09 11:15:19;;;;;;;8.52;6.63;;;8.10;63.80;;;;;;4989814;28;20509;-58
2022/12/09 11:18:03;;;;;;;8.40;6.05;;;8.10;64.30;;;;;;4989664;28;20042;-58
2022/12/09 11:20:32;;;;;;;8.05;6.15;;;8.20;63.30;;;;;;4992357;28;20042;-58
2022/12/09 11:23:14;;;;;;;11.00;6.25;;;8.20;64.00;;;;;;4991378;28;20491;-58
2022/12/09 11:25:53;;;;;;;11.93;6.68;;;8.20;63.60;;;;;;4988134;28;20049;-58
2022/12/09 11:28:27;;;;;;;9.70;6.18;;;8.30;63.30;;;;;;4989348;28;20122;-58
2022/12/09 11:31:19;;;;;;;10.40;6.50;;;8.30;63.90;;;;;;5006074;28;20049;-58
2022/12/09 11:34:00;;;;;;;12.15;6.80;;;8.30;63.70;;;;;;4989088;28;20062;-58
2022/12/09 11:36:33;;;;;;;10.48;6.40;;;8.40;63.80;;;;;;4990000;28;20495;-57
2022/12/09 11:39:14;;;;;;;8.50;6.85;;;8.40;63.50;;;;;;4987912;28;20034;-58
2022/12/09 11:44:32;;;;;;;9.27;5.75;;;8.50;63.20;;;;;;4986283;28;20053;-58
2022/12/09 11:47:09;;;;;;;11.68;7.13;;;8.50;63.40;;;;;;4988790;28;20554;-58
2022/12/09 11:49:47;;;;;;;9.95;5.75;;;8.60;63.30;;;;;;4987903;28;20042;-59
2022/12/09 11:52:16;;;;;;;10.68;6.43;;;8.60;62.40;;;;;;5004159;28;20050;-59
2022/12/09 11:54:52;;;;;;;9.10;6.13;;;8.70;62.70;;;;;;4989747;28;20570;-58
2022/12/09 11:57:28;;;;;;;10.43;6.32;;;8.70;62.50;;;;;;4986041;28;20042;-58
2022/12/09 11:59:59;;;;;;;9.18;5.80;;;8.70;62.20;;;;;;4989869;28;20053;-58
2022/12/09 12:02:31;;;;;;;9.35;6.28;;;8.70;62.20;;;;;;4989482;28;20117;-58
2022/12/09 12:05:07;;;;;;;11.40;6.30;;;8.80;62.10;;;;;;4991529;28;20524;-58
2022/12/09 12:07:42;;;;;;;8.38;6.38;;;8.80;62.60;;;;;;4988584;28;20126;-58
2022/12/09 12:10:33;;;;;;;10.15;7.10;;;8.80;61.70;;;;;;4989756;28;20058;-57
2022/12/09 12:13:19;;;;;;;12.32;6.70;;;8.80;60.80;;;;;;4990005;28;20551;-58
2022/12/09 12:16:34;;;;;;;9.38;6.95;;;8.70;60.90;;;;;;4989977;28;20054;-58
2022/12/09 12:19:12;;;;;;;10.18;6.30;;;8.70;61.00;;;;;;4957714;28;20050;-58
2022/12/09 12:21:54;;;;;;;9.25;6.13;;;8.70;61.50;;;;;;4996170;28;20042;-58
2022/12/09 12:24:24;;;;;;;9.07;6.18;;;8.70;61.40;;;;;;4996542;28;20053;-58
2022/12/09 12:26:53;;;;;;;12.60;6.43;;;8.60;61.70;;;;;;4994513;28;20050;-58
2022/12/09 12:29:51;;;;;;;9.63;6.28;;;8.60;61.60;;;;;;4997220;28;20118;-57
2022/12/09 12:32:43;;;;;;;10.90;6.57;;;8.60;60.80;;;;;;4989435;28;20047;-58
2022/12/09 12:35:33;;;;;;;9.63;6.78;;;8.70;61.20;;;;;;4986083;28;20118;-58
2022/12/09 12:38:09;;;;;;;7.28;5.55;;;8.60;61.20;;;;;;4996342;28;20038;-59
2022/12/09 12:41:00;;;;;;;9.27;7.03;;;8.60;61.50;;;;;;4996863;28;20042;-58
2022/12/09 12:47:08;;;;;;;8.90;6.18;;;8.70;61.60;;;;;;4993294;28;20042;-58
2022/12/09 12:49:41;;;;;;;8.23;5.93;;;8.70;61.60;;;;;;4991769;28;20563;-58
2022/12/09 12:52:10;;;;;;;10.43;6.30;;;8.70;61.50;;;;;;4995595;28;20499;-58
2022/12/09 12:55:25;;;;;;;9.35;6.53;;;8.70;61.70;;;;;;4996371;28;20061;-58
2022/12/09 12:58:16;;;;;;;9.95;5.88;;;8.70;61.20;;;;;;4994856;28;20507;-58
2022/12/09 13:00:52;;;;;;;9.10;6.60;;;8.80;61.10;;;;;;4976611;28;20078;-59
2022/12/09 13:03:31;;;;;;;11.77;6.20;;;8.80;61.50;;;;;;4993826;28;20034;-58
2022/12/09 13:06:00;;;;;;;8.98;6.53;;;8.80;60.90;;;;;;4994992;28;20046;-58
2022/12/09 13:08:34;;;;;;;10.00;7.07;;;8.80;61.40;;;;;;4997045;28;20048;-58
2022/12/09 13:11:13;;;;;;;10.40;6.45;;;8.80;61.40;;;;;;4995508;28;20041;-58
2022/12/09 13:13:52;;;;;;;9.57;6.05;;;8.80;60.90;;;;;;4994561;28;20042;-59
2022/12/09 13:16:33;;;;;;;9.15;5.65;;;8.80;60.60;;;;;;4988138;28;20048;-57
2022/12/09 13:19:23;;;;;;;8.40;5.88;;;8.90;60.90;;;;;;4995132;28;20039;-58
2022/12/09 13:21:50;;;;;;;10.68;6.40;;;8.80;60.30;;;;;;4994883;28;20046;-58